Tanger Express — CNA4608 — position and weather

sailwx.info

Track history (hours):
 
Tides and Currents Weather Stations Pressure Air Temp Water Temp Dewpoint Dewpoint Depression Visibility Wind Speed Wind Dir Waves Ship Positions

Tanger Express

Last reported at 2017-Nov-24 19:13 UTC. Time now 2017-Nov-24 20:44 UTC.
Position N 35°56' W 005°30'.

Length 136 m; draft 4.9 m.

Type: Passenger vessel. MMSI: 242127000.

Date/timePositionNaut miles runAvg speedWind from/ knotsBaromVisibWave heightAir tempDewpointWater temp
2017-Nov-24 19:13N 35°56' W 005°30'316.2
2017-Nov-24 19:00N 35°59' W 005°28'9 3.1
2017-Nov-24 16:11N 36°08' W 005°26'0 0.7
2017-Nov-24 16:00N 36°08' W 005°26'4 7.7
2017-Nov-24 15:30N 36°05' W 005°23'817.0
2017-Nov-24 15:01N 35°57' W 005°27'2 0.8
2017-Nov-24 12:15N 35°56' W 005°30'715.4
2017-Nov-24 11:48N 36°02' W 005°25'1 0.6
2017-Nov-24 09:11N 36°02' W 005°23'417.8
2017-Nov-24 08:58N 35°59' W 005°25'5 1.9
2017-Nov-24 06:21N 35°56' W 005°30'616.2
2017-Nov-24 06:00N 36°01' W 005°26'811.4
2017-Nov-24 05:20N 36°08' W 005°26'0 0.5
2017-Nov-24 04:29N 36°08' W 005°26'0 0.0
2017-Nov-24 03:47N 36°08' W 005°26'0 0.6
2017-Nov-24 03:30N 36°08' W 005°26'4 8.5
2017-Nov-24 03:01N 36°04' W 005°24'816.9
2017-Nov-24 02:31N 35°56' W 005°28'1 0.6
2017-Nov-24 00:15N 35°56' W 005°30'416.0
2017-Nov-24 00:00N 35°59' W 005°27'815.8
2017-Nov-23 23:30N 36°06' W 005°24'2 1.5
2017-Nov-23 21:54N 36°08' W 005°26'2 4.7
2017-Nov-23 21:29N 36°07' W 005°24'816.7
2017-Nov-23 21:00N 35°59' W 005°25'5 1.9
2017-Nov-23 18:26N 35°56' W 005°30'716.0
2017-Nov-23 18:00N 36°02' W 005°25'7 2.9
2017-Nov-23 15:30N 36°09' W 005°26'1015.4
2017-Nov-23 14:50N 35°59' W 005°26'4 2.1
2017-Nov-23 12:49N 35°56' W 005°30'615.5
2017-Nov-23 12:24N 36°01' W 005°25'3 1.0
2017-Nov-23 09:38N 36°04' W 005°23'518.2
2017-Nov-23 09:21N 35°59' W 005°26'4 1.2
2017-Nov-23 06:08N 35°56' W 005°29'216.7
2017-Nov-23 06:00N 35°58' W 005°28'816.3
2017-Nov-23 05:30N 36°05' W 005°24'3 2.2
2017-Nov-23 04:03N 36°08' W 005°26'1 4.1
2017-Nov-23 03:42N 36°09' W 005°25'314.3
2017-Nov-23 03:29N 36°06' W 005°24'817.0
2017-Nov-23 03:00N 35°58' W 005°26'3 1.2
2017-Nov-23 00:08N 35°56' W 005°30'217.0
2017-Nov-23 00:00N 35°58' W 005°29'816.3
2017-Nov-22 23:30N 36°05' W 005°24'3 6.4
2017-Nov-22 23:00N 36°08' W 005°26'0 0.0
2017-Nov-22 22:24N 36°08' W 005°26'0 0.0
2017-Nov-22 22:00N 36°08' W 005°26'3 4.6
2017-Nov-22 21:24N 36°06' W 005°24'717.0
2017-Nov-22 21:00N 35°59' W 005°25'  
2017-Nov-20 00:19N 35°56' W 005°30'516.5
2017-Nov-20 00:00N 36°00' W 005°26'816.4
2017-Nov-19 23:30N 36°08' W 005°25'1 0.7
2017-Nov-19 21:35N 36°08' W 005°26'1 6.5
2017-Nov-19 21:26N 36°09' W 005°26'614.0
2017-Nov-19 21:00N 36°03' W 005°24'8 3.1
2017-Nov-19 18:16N 35°56' W 005°30'415.7
2017-Nov-19 18:00N 35°59' W 005°27'815.2
2017-Nov-19 17:30N 36°07' W 005°24'2 1.5
2017-Nov-19 15:57N 36°08' W 005°26'1 3.1
2017-Nov-19 15:30N 36°09' W 005°25'816.2
2017-Nov-19 15:00N 36°01' W 005°25'6 2.1
2017-Nov-19 12:13N 35°56' W 005°30'10 3.3
2017-Nov-19 09:21N 36°04' W 005°23'617.3
2017-Nov-19 09:00N 35°59' W 005°26'5 1.6
2017-Nov-19 06:10N 35°56' W 005°31'214.2
2017-Nov-19 06:00N 35°58' W 005°29'7 2.3
2017-Nov-19 02:56N 36°04' W 005°24'716.8
2017-Nov-19 02:30N 35°57' W 005°28'2 0.9
2017-Nov-19 00:20N 35°56' W 005°30'917.0
2017-Nov-18 23:48N 36°04' W 005°24'510.0
2017-Nov-18 23:21N 36°08' W 005°26'0 0.4
2017-Nov-18 22:20N 36°08' W 005°26'0 0.5
2017-Nov-18 21:59N 36°08' W 005°26'4 9.2
2017-Nov-18 21:30N 36°04' W 005°24'817.0
2017-Nov-18 21:01N 35°56' W 005°28'2 0.6
2017-Nov-18 18:14N 35°57' W 005°30'10 3.6
2017-Nov-18 15:26N 36°05' W 005°24'716.4
2017-Nov-18 15:00N 35°58' W 005°26'3 1.2
2017-Nov-18 12:12N 35°56' W 005°30'316.4
2017-Nov-18 12:00N 35°59' W 005°27'6 2.1
2017-Nov-18 09:24N 36°04' W 005°24'717.1
2017-Nov-18 09:00N 35°58' W 005°27'3 1.0
2017-Nov-18 06:14N 35°56' W 005°30'314.4
2017-Nov-18 06:00N 35°59' W 005°28'815.9
2017-Nov-18 05:30N 36°06' W 005°24'3 1.5
2017-Nov-18 03:44N 36°08' W 005°26'1 5.5
2017-Nov-18 03:29N 36°09' W 005°25'816.3
2017-Nov-18 03:01N 36°01' W 005°24'7 2.6
2017-Nov-18 00:14N 35°56' W 005°31'416.5
2017-Nov-18 00:01N 35°59' W 005°28'815.5
2017-Nov-17 23:30N 36°06' W 005°24'3 4.7
2017-Nov-17 22:58N 36°08' W 005°26'0 0.0
2017-Nov-17 22:29N 36°08' W 005°26'0 0.0
2017-Nov-17 21:50N 36°08' W 005°26'1 3.0
2017-Nov-17 21:28N 36°09' W 005°26'715.4
2017-Nov-17 21:00N 36°02' W 005°24'7 2.7
2017-Nov-17 18:18N 35°56' W 005°30'9 2.8
2017-Nov-17 15:07N 36°04' W 005°24'517.2
2017-Nov-17 14:48N 35°59' W 005°26'5 2.2
2017-Nov-17 12:44N 35°56' W 005°30'416.2
2017-Nov-17 12:31N 35°59' W 005°28'5 1.8
2017-Nov-17 09:34N 36°03' W 005°24'116.8
2017-Nov-17 09:30N 36°03' W 005°24'8 2.4
2017-Nov-17 06:13N 35°56' W 005°30'314.9
2017-Nov-17 06:01N 35°59' W 005°28'815.3
2017-Nov-17 05:31N 36°06' W 005°24'3 5.7
2017-Nov-17 05:00N 36°08' W 005°26'0 0.0
2017-Nov-17 04:28N 36°08' W 005°26'0 0.0
2017-Nov-17 03:53N 36°08' W 005°26'0 1.1
2017-Nov-17 03:29N 36°08' W 005°26'510.9
2017-Nov-17 03:00N 36°03' W 005°24'816.8
2017-Nov-17 02:30N 35°56' W 005°29'1 0.4
2017-Nov-17 00:47N 35°56' W 005°30'516.2
2017-Nov-17 00:30N 35°60' W 005°27'815.8
2017-Nov-17 00:00N 36°08' W 005°24'2 2.0
2017-Nov-16 23:08N 36°08' W 005°26'0 0.1
2017-Nov-16 22:50N 36°08' W 005°26'3 7.1
2017-Nov-16 22:20N 36°05' W 005°24'617.4
2017-Nov-16 22:00N 35°59' W 005°25'5 2.6
2017-Nov-16 20:08N 35°56' W 005°30'216.5
2017-Nov-16 20:01N 35°58' W 005°29'7 1.5
2017-Nov-16 15:07N 36°04' W 005°24'217.2
2017-Nov-16 15:00N 36°02' W 005°24'7 2.9
2017-Nov-16 12:28N 35°56' W 005°30'816.6
2017-Nov-16 12:01N 36°03' W 005°25'1 0.5
2017-Nov-16 09:24N 36°04' W 005°23'616.7
2017-Nov-16 09:00N 35°58' W 005°26'3 1.2
2017-Nov-16 06:11N 35°56' W 005°30'315.3
2017-Nov-16 06:00N 35°59' W 005°28'816.0
2017-Nov-16 05:30N 36°06' W 005°24'3 5.3
2017-Nov-16 04:58N 36°08' W 005°26'0 0.0
2017-Nov-16 04:27N 36°08' W 005°26'0 0.2
2017-Nov-16 03:37N 36°08' W 005°26'1 5.9
2017-Nov-16 03:22N 36°09' W 005°25'515.0
2017-Nov-16 03:00N 36°03' W 005°24'9 3.0
2017-Nov-16 00:05N 35°56' W 005°30'116.8
2017-Nov-16 00:00N 35°58' W 005°29'816.4
2017-Nov-15 23:30N 36°05' W 005°24'4 2.4
2017-Nov-15 21:53N 36°08' W 005°26'3 6.6
2017-Nov-15 21:26N 36°06' W 005°24'817.1
2017-Nov-15 21:00N 35°58' W 005°26'4 1.3
2017-Nov-15 18:15N 35°56' W 005°30'515.7
2017-Nov-15 17:57N 36°00' W 005°27'3 1.4
2017-Nov-15 15:27N 36°03' W 005°24'716.4
2017-Nov-15 15:00N 35°57' W 005°28'2 1.1
2017-Nov-15 12:43N 35°57' W 005°31'316.5
2017-Nov-15 12:31N 35°59' W 005°28'3 0.7
2017-Nov-15 09:04N 35°60' W 005°25'116.5
2017-Nov-15 09:00N 35°59' W 005°26'6 2.4
2017-Nov-15 06:21N 35°54' W 005°31'515.3
2017-Nov-15 06:00N 35°59' W 005°28'815.3
2017-Nov-15 05:30N 36°05' W 005°24'3 2.6
2017-Nov-15 04:17N 36°08' W 005°26'0 0.0
2017-Nov-15 03:52N 36°08' W 005°26'0 1.3
2017-Nov-15 03:29N 36°08' W 005°26'510.5
2017-Nov-15 03:01N 36°04' W 005°24'816.7
2017-Nov-15 02:31N 35°56' W 005°29'1 0.3
2017-Nov-15 00:23N 35°56' W 005°30'614.9
2017-Nov-15 00:00N 36°01' W 005°26'815.2
2017-Nov-14 23:30N 36°08' W 005°25'1 2.7
2017-Nov-14 22:59N 36°08' W 005°26'7 4.0
2017-Nov-14 21:20N 36°01' W 005°24'617.2
2017-Nov-14 21:00N 35°57' W 005°28'  
Track history (hours):
 
Tides and Currents Weather Stations Pressure Air Temp Water Temp Dewpoint Dewpoint Depression Visibility Wind Speed Wind Dir Waves Ship Positions

Tanger Express

Last reported at 2017-Nov-24 19:13 UTC. Time now 2017-Nov-24 20:44 UTC.
Position N 35°56' W 005°30'.

Length 136 m; draft 4.9 m.

Type: Passenger vessel. MMSI: 242127000.

Date/timePositionNaut miles runAvg speedWind from/ knotsBaromVisibWave heightAir tempDewpointWater temp
2017-Nov-24 19:13N 35°56' W 005°30'316.2
2017-Nov-24 19:00N 35°59' W 005°28'9 3.1
2017-Nov-24 16:11N 36°08' W 005°26'0 0.7
2017-Nov-24 16:00N 36°08' W 005°26'4 7.7
2017-Nov-24 15:30N 36°05' W 005°23'817.0
2017-Nov-24 15:01N 35°57' W 005°27'2 0.8
2017-Nov-24 12:15N 35°56' W 005°30'715.4
2017-Nov-24 11:48N 36°02' W 005°25'1 0.6
2017-Nov-24 09:11N 36°02' W 005°23'417.8
2017-Nov-24 08:58N 35°59' W 005°25'5 1.9
2017-Nov-24 06:21N 35°56' W 005°30'616.2
2017-Nov-24 06:00N 36°01' W 005°26'811.4
2017-Nov-24 05:20N 36°08' W 005°26'0 0.5
2017-Nov-24 04:29N 36°08' W 005°26'0 0.0
2017-Nov-24 03:47N 36°08' W 005°26'0 0.6
2017-Nov-24 03:30N 36°08' W 005°26'4 8.5
2017-Nov-24 03:01N 36°04' W 005°24'816.9
2017-Nov-24 02:31N 35°56' W 005°28'1 0.6
2017-Nov-24 00:15N 35°56' W 005°30'416.0
2017-Nov-24 00:00N 35°59' W 005°27'815.8
2017-Nov-23 23:30N 36°06' W 005°24'2 1.5
2017-Nov-23 21:54N 36°08' W 005°26'2 4.7
2017-Nov-23 21:29N 36°07' W 005°24'816.7
2017-Nov-23 21:00N 35°59' W 005°25'5 1.9
2017-Nov-23 18:26N 35°56' W 005°30'716.0
2017-Nov-23 18:00N 36°02' W 005°25'7 2.9
2017-Nov-23 15:30N 36°09' W 005°26'1015.4
2017-Nov-23 14:50N 35°59' W 005°26'4 2.1
2017-Nov-23 12:49N 35°56' W 005°30'615.5
2017-Nov-23 12:24N 36°01' W 005°25'3 1.0
2017-Nov-23 09:38N 36°04' W 005°23'518.2
2017-Nov-23 09:21N 35°59' W 005°26'4 1.2
2017-Nov-23 06:08N 35°56' W 005°29'216.7
2017-Nov-23 06:00N 35°58' W 005°28'816.3
2017-Nov-23 05:30N 36°05' W 005°24'3 2.2
2017-Nov-23 04:03N 36°08' W 005°26'1 4.1
2017-Nov-23 03:42N 36°09' W 005°25'314.3
2017-Nov-23 03:29N 36°06' W 005°24'817.0
2017-Nov-23 03:00N 35°58' W 005°26'3 1.2
2017-Nov-23 00:08N 35°56' W 005°30'217.0
2017-Nov-23 00:00N 35°58' W 005°29'816.3
2017-Nov-22 23:30N 36°05' W 005°24'3 6.4
2017-Nov-22 23:00N 36°08' W 005°26'0 0.0
2017-Nov-22 22:24N 36°08' W 005°26'0 0.0
2017-Nov-22 22:00N 36°08' W 005°26'3 4.6
2017-Nov-22 21:24N 36°06' W 005°24'717.0
2017-Nov-22 21:00N 35°59' W 005°25'  
2017-Nov-20 00:19N 35°56' W 005°30'516.5
2017-Nov-20 00:00N 36°00' W 005°26'816.4
2017-Nov-19 23:30N 36°08' W 005°25'1 0.7
2017-Nov-19 21:35N 36°08' W 005°26'1 6.5
2017-Nov-19 21:26N 36°09' W 005°26'614.0
2017-Nov-19 21:00N 36°03' W 005°24'8 3.1
2017-Nov-19 18:16N 35°56' W 005°30'415.7
2017-Nov-19 18:00N 35°59' W 005°27'815.2
2017-Nov-19 17:30N 36°07' W 005°24'2 1.5
2017-Nov-19 15:57N 36°08' W 005°26'1 3.1
2017-Nov-19 15:30N 36°09' W 005°25'816.2
2017-Nov-19 15:00N 36°01' W 005°25'6 2.1
2017-Nov-19 12:13N 35°56' W 005°30'10 3.3
2017-Nov-19 09:21N 36°04' W 005°23'617.3
2017-Nov-19 09:00N 35°59' W 005°26'5 1.6
2017-Nov-19 06:10N 35°56' W 005°31'214.2
2017-Nov-19 06:00N 35°58' W 005°29'7 2.3
2017-Nov-19 02:56N 36°04' W 005°24'716.8
2017-Nov-19 02:30N 35°57' W 005°28'2 0.9
2017-Nov-19 00:20N 35°56' W 005°30'917.0
2017-Nov-18 23:48N 36°04' W 005°24'510.0
2017-Nov-18 23:21N 36°08' W 005°26'0 0.4
2017-Nov-18 22:20N 36°08' W 005°26'0 0.5
2017-Nov-18 21:59N 36°08' W 005°26'4 9.2
2017-Nov-18 21:30N 36°04' W 005°24'817.0
2017-Nov-18 21:01N 35°56' W 005°28'2 0.6
2017-Nov-18 18:14N 35°57' W 005°30'10 3.6
2017-Nov-18 15:26N 36°05' W 005°24'716.4
2017-Nov-18 15:00N 35°58' W 005°26'3 1.2
2017-Nov-18 12:12N 35°56' W 005°30'316.4
2017-Nov-18 12:00N 35°59' W 005°27'6 2.1
2017-Nov-18 09:24N 36°04' W 005°24'717.1
2017-Nov-18 09:00N 35°58' W 005°27'3 1.0
2017-Nov-18 06:14N 35°56' W 005°30'314.4
2017-Nov-18 06:00N 35°59' W 005°28'815.9
2017-Nov-18 05:30N 36°06' W 005°24'3 1.5
2017-Nov-18 03:44N 36°08' W 005°26'1 5.5
2017-Nov-18 03:29N 36°09' W 005°25'816.3
2017-Nov-18 03:01N 36°01' W 005°24'7 2.6
2017-Nov-18 00:14N 35°56' W 005°31'416.5
2017-Nov-18 00:01N 35°59' W 005°28'815.5
2017-Nov-17 23:30N 36°06' W 005°24'3 4.7
2017-Nov-17 22:58N 36°08' W 005°26'0 0.0
2017-Nov-17 22:29N 36°08' W 005°26'0 0.0
2017-Nov-17 21:50N 36°08' W 005°26'1 3.0
2017-Nov-17 21:28N 36°09' W 005°26'715.4
2017-Nov-17 21:00N 36°02' W 005°24'7 2.7
2017-Nov-17 18:18N 35°56' W 005°30'9 2.8
2017-Nov-17 15:07N 36°04' W 005°24'517.2
2017-Nov-17 14:48N 35°59' W 005°26'5 2.2
2017-Nov-17 12:44N 35°56' W 005°30'416.2
2017-Nov-17 12:31N 35°59' W 005°28'5 1.8
2017-Nov-17 09:34N 36°03' W 005°24'116.8
2017-Nov-17 09:30N 36°03' W 005°24'8 2.4
2017-Nov-17 06:13N 35°56' W 005°30'314.9
2017-Nov-17 06:01N 35°59' W 005°28'815.3
2017-Nov-17 05:31N 36°06' W 005°24'3 5.7
2017-Nov-17 05:00N 36°08' W 005°26'0 0.0
2017-Nov-17 04:28N 36°08' W 005°26'0 0.0
2017-Nov-17 03:53N 36°08' W 005°26'0 1.1
2017-Nov-17 03:29N 36°08' W 005°26'510.9
2017-Nov-17 03:00N 36°03' W 005°24'816.8
2017-Nov-17 02:30N 35°56' W 005°29'1 0.4
2017-Nov-17 00:47N 35°56' W 005°30'516.2
2017-Nov-17 00:30N 35°60' W 005°27'815.8
2017-Nov-17 00:00N 36°08' W 005°24'2 2.0
2017-Nov-16 23:08N 36°08' W 005°26'0 0.1
2017-Nov-16 22:50N 36°08' W 005°26'3 7.1
2017-Nov-16 22:20N 36°05' W 005°24'617.4
2017-Nov-16 22:00N 35°59' W 005°25'5 2.6
2017-Nov-16 20:08N 35°56' W 005°30'216.5
2017-Nov-16 20:01N 35°58' W 005°29'7 1.5
2017-Nov-16 15:07N 36°04' W 005°24'217.2
2017-Nov-16 15:00N 36°02' W 005°24'7 2.9
2017-Nov-16 12:28N 35°56' W 005°30'816.6
2017-Nov-16 12:01N 36°03' W 005°25'1 0.5
2017-Nov-16 09:24N 36°04' W 005°23'616.7
2017-Nov-16 09:00N 35°58' W 005°26'3 1.2
2017-Nov-16 06:11N 35°56' W 005°30'315.3
2017-Nov-16 06:00N 35°59' W 005°28'816.0
2017-Nov-16 05:30N 36°06' W 005°24'3 5.3
2017-Nov-16 04:58N 36°08' W 005°26'0 0.0
2017-Nov-16 04:27N 36°08' W 005°26'0 0.2
2017-Nov-16 03:37N 36°08' W 005°26'1 5.9
2017-Nov-16 03:22N 36°09' W 005°25'515.0
2017-Nov-16 03:00N 36°03' W 005°24'9 3.0
2017-Nov-16 00:05N 35°56' W 005°30'116.8
2017-Nov-16 00:00N 35°58' W 005°29'816.4
2017-Nov-15 23:30N 36°05' W 005°24'4 2.4
2017-Nov-15 21:53N 36°08' W 005°26'3 6.6
2017-Nov-15 21:26N 36°06' W 005°24'817.1
2017-Nov-15 21:00N 35°58' W 005°26'4 1.3
2017-Nov-15 18:15N 35°56' W 005°30'515.7
2017-Nov-15 17:57N 36°00' W 005°27'3 1.4
2017-Nov-15 15:27N 36°03' W 005°24'716.4
2017-Nov-15 15:00N 35°57' W 005°28'2 1.1
2017-Nov-15 12:43N 35°57' W 005°31'316.5
2017-Nov-15 12:31N 35°59' W 005°28'3 0.7
2017-Nov-15 09:04N 35°60' W 005°25'116.5
2017-Nov-15 09:00N 35°59' W 005°26'6 2.4
2017-Nov-15 06:21N 35°54' W 005°31'515.3
2017-Nov-15 06:00N 35°59' W 005°28'815.3
2017-Nov-15 05:30N 36°05' W 005°24'3 2.6
2017-Nov-15 04:17N 36°08' W 005°26'0 0.0
2017-Nov-15 03:52N 36°08' W 005°26'0 1.3
2017-Nov-15 03:29N 36°08' W 005°26'510.5
2017-Nov-15 03:01N 36°04' W 005°24'816.7
2017-Nov-15 02:31N 35°56' W 005°29'1 0.3
2017-Nov-15 00:23N 35°56' W 005°30'614.9
2017-Nov-15 00:00N 36°01' W 005°26'815.2
2017-Nov-14 23:30N 36°08' W 005°25'1 2.7
2017-Nov-14 22:59N 36°08' W 005°26'7 4.0
2017-Nov-14 21:20N 36°01' W 005°24'617.2
2017-Nov-14 21:00N 35°57' W 005°28'  

Dump ship's entire track history